sensor_id;sensor_type;location;lat;lon;timestamp;pressure;altitude;pressure_sealevel;temperature;humidity
46408;BME280;32110;45.724;21.276;2023-01-31T07:48:15;100480.63;;;0.90;nan
46408;BME280;32110;45.724;21.276;2023-01-31T07:50:41;100502.81;;;1.00;nan
46408;BME280;32110;45.724;21.276;2023-01-31T07:53:06;100509.16;;;1.06;nan
46408;BME280;32110;45.724;21.276;2023-01-31T07:55:31;100499.59;;;0.98;nan
46408;BME280;32110;45.724;21.276;2023-01-31T07:57:57;100518.06;;;1.12;nan
46408;BME280;32110;45.724;21.276;2023-01-31T08:00:22;100503.31;;;1.12;nan
46408;BME280;32110;45.724;21.276;2023-01-31T08:03:22;100519.22;;;1.17;nan
46408;BME280;32110;45.724;21.276;2023-01-31T08:05:57;100520.69;;;1.20;nan
46408;BME280;32110;45.724;21.276;2023-01-31T08:08:22;100502.69;;;1.18;nan
46408;BME280;32110;45.724;21.276;2023-01-31T08:10:48;100522.63;;;1.26;nan
46408;BME280;32110;45.724;21.276;2023-01-31T08:13:13;100520.69;;;1.28;nan
46408;BME280;32110;45.724;21.276;2023-01-31T08:15:38;100521.34;;;1.30;nan
46408;BME280;32110;45.724;21.276;2023-01-31T08:18:04;100519.41;;;1.32;nan
46408;BME280;32110;45.724;21.276;2023-01-31T08:20:29;100524.41;;;1.34;nan
46408;BME280;32110;45.724;21.276;2023-01-31T08:22:55;100481.44;;;1.06;nan
46408;BME280;32110;45.724;21.276;2023-01-31T08:25:24;100539.69;;;1.37;nan
46408;BME280;32110;45.724;21.276;2023-01-31T08:27:51;100534.31;;;1.38;nan
46408;BME280;32110;45.724;21.276;2023-01-31T08:30:16;100531.75;;;1.46;nan
46408;BME280;32110;45.724;21.276;2023-01-31T08:32:41;100528.97;;;1.48;nan
46408;BME280;32110;45.724;21.276;2023-01-31T08:35:07;100537.91;;;1.54;nan
46408;BME280;32110;45.724;21.276;2023-01-31T08:37:33;100544.38;;;1.58;nan
46408;BME280;32110;45.724;21.276;2023-01-31T08:40:00;100540.97;;;1.57;nan
46408;BME280;32110;45.724;21.276;2023-01-31T08:42:25;100552.66;;;1.61;nan
46408;BME280;32110;45.724;21.276;2023-01-31T08:44:51;100552.50;;;1.63;nan
46408;BME280;32110;45.724;21.276;2023-01-31T08:47:16;100556.72;;;1.56;nan
46408;BME280;32110;45.724;21.276;2023-01-31T08:49:41;100550.53;;;1.57;nan
46408;BME280;32110;45.724;21.276;2023-01-31T08:52:07;100550.53;;;1.65;nan
46408;BME280;32110;45.724;21.276;2023-01-31T08:54:32;100558.66;;;1.70;nan
46408;BME280;32110;45.724;21.276;2023-01-31T08:56:58;100559.78;;;1.76;nan
46408;BME280;32110;45.724;21.276;2023-01-31T08:59:23;100564.00;;;1.77;nan
46408;BME280;32110;45.724;21.276;2023-01-31T09:01:48;100563.50;;;1.81;nan
46408;BME280;32110;45.724;21.276;2023-01-31T09:04:14;100573.06;;;1.89;nan
46408;BME280;32110;45.724;21.276;2023-01-31T09:06:39;100560.75;;;1.83;nan
46408;BME280;32110;45.724;21.276;2023-01-31T09:09:05;100582.81;;;1.95;nan
46408;BME280;32110;45.724;21.276;2023-01-31T09:11:30;100573.56;;;1.92;nan
46408;BME280;32110;45.724;21.276;2023-01-31T09:13:56;100587.84;;;2.05;nan
46408;BME280;32110;45.724;21.276;2023-01-31T09:16:21;100578.09;;;2.07;nan
46408;BME280;32110;45.724;21.276;2023-01-31T09:18:47;100589.31;;;2.16;nan
46408;BME280;32110;45.724;21.276;2023-01-31T09:21:17;100584.56;;;2.19;nan
46408;BME280;32110;45.724;21.276;2023-01-31T09:23:44;100588.28;;;2.25;nan
46408;BME280;32110;45.724;21.276;2023-01-31T09:26:11;100583.94;;;2.25;nan
46408;BME280;32110;45.724;21.276;2023-01-31T09:28:37;100600.47;;;2.32;nan
46408;BME280;32110;45.724;21.276;2023-01-31T09:31:11;100564.09;;;2.24;nan
46408;BME280;32110;45.724;21.276;2023-01-31T09:33:36;100594.78;;;2.37;nan
46408;BME280;32110;45.724;21.276;2023-01-31T09:36:10;100586.00;;;2.38;nan
46408;BME280;32110;45.724;21.276;2023-01-31T09:38:37;100598.66;;;2.49;nan
46408;BME280;32110;45.724;21.276;2023-01-31T09:41:05;100598.16;;;2.54;nan
46408;BME280;32110;45.724;21.276;2023-01-31T09:43:39;100586.09;;;2.61;nan
46408;BME280;32110;45.724;21.276;2023-01-31T09:46:15;100596.19;;;2.87;nan
46408;BME280;32110;45.724;21.276;2023-01-31T09:48:45;100589.19;;;2.96;nan
46408;BME280;32110;45.724;21.276;2023-01-31T09:51:13;100587.88;;;3.00;nan
46408;BME280;32110;45.724;21.276;2023-01-31T09:53:41;100585.47;;;3.22;nan
46408;BME280;32110;45.724;21.276;2023-01-31T09:56:22;100572.91;;;3.25;nan
46408;BME280;32110;45.724;21.276;2023-01-31T09:59:01;100591.75;;;3.35;nan
46408;BME280;32110;45.724;21.276;2023-01-31T10:07:11;100606.03;;;3.62;nan
46408;BME280;32110;45.724;21.276;2023-01-31T10:09:43;100599.59;;;3.73;nan
46408;BME280;32110;45.724;21.276;2023-01-31T10:12:16;100601.50;;;3.79;nan
46408;BME280;32110;45.724;21.276;2023-01-31T10:14:47;100602.59;;;3.85;nan
46408;BME280;32110;45.724;21.276;2023-01-31T10:17:16;100599.28;;;3.91;nan
46408;BME280;32110;45.724;21.276;2023-01-31T10:22:34;100600.97;;;3.84;nan
46408;BME280;32110;45.724;21.276;2023-01-31T10:27:49;100590.16;;;3.72;nan
46408;BME280;32110;45.724;21.276;2023-01-31T10:30:55;100597.47;;;3.77;nan
46408;BME280;32110;45.724;21.276;2023-01-31T10:33:31;100599.69;;;3.80;nan
46408;BME280;32110;45.724;21.276;2023-01-31T10:36:02;100592.09;;;3.78;nan
46408;BME280;32110;45.724;21.276;2023-01-31T10:38:36;100587.16;;;3.83;nan
46408;BME280;32110;45.724;21.276;2023-01-31T10:41:13;100581.31;;;3.81;nan
46408;BME280;32110;45.724;21.276;2023-01-31T10:43:52;100577.38;;;3.86;nan
46408;BME280;32110;45.724;21.276;2023-01-31T10:46:23;100583.81;;;3.90;nan
46408;BME280;32110;45.724;21.276;2023-01-31T10:48:49;100579.53;;;3.97;nan
46408;BME280;32110;45.724;21.276;2023-01-31T10:56:40;100583.25;;;4.02;nan
46408;BME280;32110;45.724;21.276;2023-01-31T10:59:12;100580.44;;;4.04;nan
46408;BME280;32110;45.724;21.276;2023-01-31T11:01:41;100592.31;;;4.07;nan
46408;BME280;32110;45.724;21.276;2023-01-31T11:06:45;100572.00;;;4.02;nan
46408;BME280;32110;45.724;21.276;2023-01-31T11:09:10;100593.84;;;4.16;nan
46408;BME280;32110;45.724;21.276;2023-01-31T11:11:58;100588.63;;;4.16;nan
46408;BME280;32110;45.724;21.276;2023-01-31T11:14:25;100589.09;;;4.19;nan
46408;BME280;32110;45.724;21.276;2023-01-31T11:17:20;100594.50;;;4.18;nan
46408;BME280;32110;45.724;21.276;2023-01-31T11:19:50;100579.38;;;4.13;nan
46408;BME280;32110;45.724;21.276;2023-01-31T11:24:48;100585.22;;;4.15;nan
46408;BME280;32110;45.724;21.276;2023-01-31T11:27:24;100571.28;;;4.08;nan
46408;BME280;32110;45.724;21.276;2023-01-31T11:29:51;100574.06;;;4.07;nan
46408;BME280;32110;45.724;21.276;2023-01-31T11:32:25;100583.78;;;4.13;nan
46408;BME280;32110;45.724;21.276;2023-01-31T11:35:01;100577.94;;;4.11;nan
46408;BME280;32110;45.724;21.276;2023-01-31T11:37:32;100565.91;;;4.10;nan
46408;BME280;32110;45.724;21.276;2023-01-31T11:40:04;100579.00;;;4.16;nan
46408;BME280;32110;45.724;21.276;2023-01-31T11:42:53;100571.19;;;4.16;nan
46408;BME280;32110;45.724;21.276;2023-01-31T11:45:21;100576.88;;;4.20;nan
46408;BME280;32110;45.724;21.276;2023-01-31T11:47:54;100568.88;;;4.36;nan
46408;BME280;32110;45.724;21.276;2023-01-31T11:50:36;100567.63;;;4.47;nan
46408;BME280;32110;45.724;21.276;2023-01-31T11:53:14;100551.91;;;4.55;nan
46408;BME280;32110;45.724;21.276;2023-01-31T11:55:41;100560.59;;;4.77;nan
46408;BME280;32110;45.724;21.276;2023-01-31T11:58:16;100565.22;;;4.97;nan
46408;BME280;32110;45.724;21.276;2023-01-31T12:00:58;100553.78;;;4.98;nan
46408;BME280;32110;45.724;21.276;2023-01-31T12:03:25;100565.59;;;4.94;nan
46408;BME280;32110;45.724;21.276;2023-01-31T12:06:41;100568.47;;;4.99;nan
46408;BME280;32110;45.724;21.276;2023-01-31T12:08:53;100556.13;;;4.93;nan
46408;BME280;32110;45.724;21.276;2023-01-31T12:13:47;100566.44;;;4.79;nan
46408;BME280;32110;45.724;21.276;2023-01-31T12:16:13;100562.09;;;4.72;nan
46408;BME280;32110;45.724;21.276;2023-01-31T12:27:05;100572.53;;;4.72;nan
46408;BME280;32110;45.724;21.276;2023-01-31T12:40:55;100583.16;;;4.70;nan
46408;BME280;32110;45.724;21.276;2023-01-31T12:43:39;100594.88;;;4.74;nan
46408;BME280;32110;45.724;21.276;2023-01-31T12:46:19;100541.91;;;4.44;nan
46408;BME280;32110;45.724;21.276;2023-01-31T12:48:57;100593.59;;;4.70;nan
46408;BME280;32110;45.724;21.276;2023-01-31T12:57:18;100592.53;;;4.79;nan
46408;BME280;32110;45.724;21.276;2023-01-31T13:00:11;100596.91;;;4.79;nan
46408;BME280;32110;45.724;21.276;2023-01-31T13:05:37;100571.94;;;4.69;nan
46408;BME280;32110;45.724;21.276;2023-01-31T13:08:26;100584.59;;;4.73;nan
46408;BME280;32110;45.724;21.276;2023-01-31T13:11:05;100590.88;;;4.78;nan
46408;BME280;32110;45.724;21.276;2023-01-31T13:13:59;100588.91;;;4.80;nan
46408;BME280;32110;45.724;21.276;2023-01-31T13:16:33;100597.75;;;4.79;nan
46408;BME280;32110;45.724;21.276;2023-01-31T13:19:02;100592.94;;;4.83;nan
46408;BME280;32110;45.724;21.276;2023-01-31T13:21:33;100596.09;;;4.78;nan
46408;BME280;32110;45.724;21.276;2023-01-31T13:24:09;100589.91;;;4.79;nan
46408;BME280;32110;45.724;21.276;2023-01-31T13:26:50;100575.72;;;4.67;nan
46408;BME280;32110;45.724;21.276;2023-01-31T13:29:58;100606.19;;;4.81;nan
46408;BME280;32110;45.724;21.276;2023-01-31T13:34:59;100611.22;;;4.83;nan
46408;BME280;32110;45.724;21.276;2023-01-31T13:37:29;100609.16;;;4.78;nan
46408;BME280;32110;45.724;21.276;2023-01-31T13:40:16;100622.28;;;4.85;nan
46408;BME280;32110;45.724;21.276;2023-01-31T13:42:43;100605.31;;;4.74;nan
46408;BME280;32110;45.724;21.276;2023-01-31T13:45:20;100621.84;;;4.81;nan
46408;BME280;32110;45.724;21.276;2023-01-31T13:47:51;100616.34;;;4.76;nan
46408;BME280;32110;45.724;21.276;2023-01-31T13:50:51;100611.22;;;4.68;nan
46408;BME280;32110;45.724;21.276;2023-01-31T13:53:26;100631.03;;;4.77;nan
46408;BME280;32110;45.724;21.276;2023-01-31T13:55:53;100620.22;;;4.65;nan
46408;BME280;32110;45.724;21.276;2023-01-31T13:58:22;100624.97;;;4.62;nan
46408;BME280;32110;45.724;21.276;2023-01-31T14:00:57;100623.81;;;4.50;nan
46408;BME280;32110;45.724;21.276;2023-01-31T14:03:24;100645.94;;;4.54;nan
46408;BME280;32110;45.724;21.276;2023-01-31T14:05:59;100628.66;;;4.38;nan
46408;BME280;32110;45.724;21.276;2023-01-31T14:13:47;100618.19;;;4.08;nan
46408;BME280;32110;45.724;21.276;2023-01-31T14:21:55;100627.59;;;3.94;nan
46408;BME280;32110;45.724;21.276;2023-01-31T14:27:34;100646.47;;;3.96;nan
46408;BME280;32110;45.724;21.276;2023-01-31T14:34:55;100657.25;;;3.47;nan
46408;BME280;32110;45.724;21.276;2023-01-31T14:42:40;100661.22;;;3.58;nan
46408;BME280;32110;45.724;21.276;2023-01-31T14:45:26;100656.88;;;3.50;nan
46408;BME280;32110;45.724;21.276;2023-01-31T14:56:33;100668.41;;;3.56;nan
46408;BME280;32110;45.724;21.276;2023-01-31T14:59:02;100669.84;;;3.58;nan
46408;BME280;32110;45.724;21.276;2023-01-31T15:01:35;100652.13;;;3.54;nan
46408;BME280;32110;45.724;21.276;2023-01-31T15:04:03;100655.25;;;3.49;nan
46408;BME280;32110;45.724;21.276;2023-01-31T15:06:35;100644.59;;;3.36;nan
46408;BME280;32110;45.724;21.276;2023-01-31T15:11:42;100662.47;;;3.39;nan
46408;BME280;32110;45.724;21.276;2023-01-31T15:16:44;100694.00;;;3.44;nan
46408;BME280;32110;45.724;21.276;2023-01-31T15:19:19;100698.63;;;3.34;nan
46408;BME280;32110;45.724;21.276;2023-01-31T15:21:50;100697.16;;;3.31;nan
46408;BME280;32110;45.724;21.276;2023-01-31T15:24:40;100709.84;;;3.34;nan
46408;BME280;32110;45.724;21.276;2023-01-31T15:27:16;100701.06;;;3.35;nan
46408;BME280;32110;45.724;21.276;2023-01-31T15:32:22;100711.16;;;3.30;nan
46408;BME280;32110;45.724;21.276;2023-01-31T15:38:01;100704.03;;;3.24;nan
46408;BME280;32110;45.724;21.276;2023-01-31T15:40:28;100698.84;;;3.24;nan
46408;BME280;32110;45.724;21.276;2023-01-31T15:43:19;100702.75;;;3.20;nan
46408;BME280;32110;45.724;21.276;2023-01-31T15:45:45;100691.56;;;3.11;nan
46408;BME280;32110;45.724;21.276;2023-01-31T15:48:16;100702.47;;;3.07;nan
46408;BME280;32110;45.724;21.276;2023-01-31T15:50:54;100693.88;;;2.98;nan
46408;BME280;32110;45.724;21.276;2023-01-31T15:53:26;100658.50;;;2.72;nan
46408;BME280;32110;45.724;21.276;2023-01-31T15:55:57;100694.88;;;2.89;nan
46408;BME280;32110;45.724;21.276;2023-01-31T15:58:26;100700.78;;;2.83;nan
46408;BME280;32110;45.724;21.276;2023-01-31T16:00:54;100704.00;;;2.85;nan
46408;BME280;32110;45.724;21.276;2023-01-31T16:03:25;100714.88;;;2.80;nan
46408;BME280;32110;45.724;21.276;2023-01-31T16:05:53;100704.50;;;2.72;nan
46408;BME280;32110;45.724;21.276;2023-01-31T16:08:26;100717.22;;;2.67;nan
46408;BME280;32110;45.724;21.276;2023-01-31T16:10:53;100721.09;;;2.63;nan
46408;BME280;32110;45.724;21.276;2023-01-31T16:13:20;100725.84;;;2.59;nan
46408;BME280;32110;45.724;21.276;2023-01-31T16:15:46;100716.88;;;2.53;nan
46408;BME280;32110;45.724;21.276;2023-01-31T16:18:12;100719.66;;;2.44;nan
46408;BME280;32110;45.724;21.276;2023-01-31T16:20:49;100731.03;;;2.43;nan
46408;BME280;32110;45.724;21.276;2023-01-31T16:26:12;100719.81;;;2.34;nan
46408;BME280;32110;45.724;21.276;2023-01-31T16:28:44;100730.53;;;2.39;nan
46408;BME280;32110;45.724;21.276;2023-01-31T16:31:16;100721.59;;;2.42;nan
46408;BME280;32110;45.724;21.276;2023-01-31T16:36:21;100717.25;;;2.42;nan
46408;BME280;32110;45.724;21.276;2023-01-31T16:39:01;100726.50;;;2.61;nan
46408;BME280;32110;45.724;21.276;2023-01-31T16:44:13;100731.50;;;2.71;nan
46408;BME280;32110;45.724;21.276;2023-01-31T16:46:42;100735.72;;;2.72;nan
46408;BME280;32110;45.724;21.276;2023-01-31T16:49:31;100730.38;;;2.73;nan
46408;BME280;32110;45.724;21.276;2023-01-31T16:52:36;100746.91;;;2.89;nan
46408;BME280;32110;45.724;21.276;2023-01-31T16:55:12;100740.75;;;2.90;nan
46408;BME280;32110;45.724;21.276;2023-01-31T16:57:38;100740.41;;;2.93;nan
46408;BME280;32110;45.724;21.276;2023-01-31T17:00:05;100740.88;;;2.96;nan
46408;BME280;32110;45.724;21.276;2023-01-31T17:02:33;100742.97;;;3.01;nan
46408;BME280;32110;45.724;21.276;2023-01-31T17:05:22;100746.22;;;3.03;nan
46408;BME280;32110;45.724;21.276;2023-01-31T17:07:49;100743.66;;;2.95;nan
46408;BME280;32110;45.724;21.276;2023-01-31T17:10:20;100746.75;;;2.90;nan
46408;BME280;32110;45.724;21.276;2023-01-31T17:12:48;100725.47;;;2.70;nan
46408;BME280;32110;45.724;21.276;2023-01-31T17:15:17;100746.28;;;2.79;nan
46408;BME280;32110;45.724;21.276;2023-01-31T17:17:43;100752.94;;;2.81;nan
46408;BME280;32110;45.724;21.276;2023-01-31T17:20:11;100745.00;;;2.66;nan
46408;BME280;32110;45.724;21.276;2023-01-31T17:22:37;100750.84;;;2.68;nan
46408;BME280;32110;45.724;21.276;2023-01-31T17:25:14;100750.19;;;2.66;nan
46408;BME280;32110;45.724;21.276;2023-01-31T17:27:40;100750.19;;;2.58;nan
46408;BME280;32110;45.724;21.276;2023-01-31T17:30:06;100745.47;;;2.53;nan
46408;BME280;32110;45.724;21.276;2023-01-31T17:32:31;100741.75;;;2.48;nan
46408;BME280;32110;45.724;21.276;2023-01-31T17:34:57;100758.81;;;2.50;nan
46408;BME280;32110;45.724;21.276;2023-01-31T17:37:22;100749.88;;;2.45;nan
46408;BME280;32110;45.724;21.276;2023-01-31T17:39:47;100763.03;;;2.43;nan
46408;BME280;32110;45.724;21.276;2023-01-31T17:42:16;100749.38;;;2.25;nan
46408;BME280;32110;45.724;21.276;2023-01-31T17:44:42;100748.41;;;2.18;nan
46408;BME280;32110;45.724;21.276;2023-01-31T17:47:08;100754.25;;;2.20;nan
46408;BME280;32110;45.724;21.276;2023-01-31T17:49:33;100751.47;;;2.05;nan
46408;BME280;32110;45.724;21.276;2023-01-31T17:51:59;100759.09;;;1.98;nan
46408;BME280;32110;45.724;21.276;2023-01-31T17:54:24;100726.59;;;1.78;nan
46408;BME280;32110;45.724;21.276;2023-01-31T17:56:50;100749.84;;;1.96;nan
46408;BME280;32110;45.724;21.276;2023-01-31T17:59:15;100756.34;;;2.00;nan
46408;BME280;32110;45.724;21.276;2023-01-31T18:01:41;100763.81;;;2.03;nan
46408;BME280;32110;45.724;21.276;2023-01-31T18:04:06;100770.16;;;2.17;nan
46408;BME280;32110;45.724;21.276;2023-01-31T18:06:32;100770.50;;;2.63;nan
46408;BME280;32110;45.724;21.276;2023-01-31T18:09:00;100777.63;;;2.93;nan
46408;BME280;32110;45.724;21.276;2023-01-31T18:11:26;100770.00;;;2.67;nan
46408;BME280;32110;45.724;21.276;2023-01-31T18:13:51;100764.50;;;2.21;nan
46408;BME280;32110;45.724;21.276;2023-01-31T18:16:18;100821.66;;;2.29;nan
46408;BME280;32110;45.724;21.276;2023-01-31T18:18:45;100780.19;;;1.95;nan
46408;BME280;32110;45.724;21.276;2023-01-31T18:21:14;100780.81;;;1.89;nan
46408;BME280;32110;45.724;21.276;2023-01-31T18:23:40;100777.41;;;1.80;nan
46408;BME280;32110;45.724;21.276;2023-01-31T18:26:07;100788.91;;;1.78;nan
46408;BME280;32110;45.724;21.276;2023-01-31T18:28:33;100785.31;;;1.70;nan
46408;BME280;32110;45.724;21.276;2023-01-31T18:31:03;100784.16;;;1.65;nan
46408;BME280;32110;45.724;21.276;2023-01-31T18:33:29;100791.31;;;1.71;nan
46408;BME280;32110;45.724;21.276;2023-01-31T18:35:59;100797.00;;;1.66;nan
46408;BME280;32110;45.724;21.276;2023-01-31T18:38:28;100786.53;;;1.50;nan
46408;BME280;32110;45.724;21.276;2023-01-31T18:40:54;100806.56;;;1.66;nan
46408;BME280;32110;45.724;21.276;2023-01-31T18:43:21;100801.06;;;1.69;nan
46408;BME280;32110;45.724;21.276;2023-01-31T18:45:46;100756.97;;;1.43;nan
46408;BME280;32110;45.724;21.276;2023-01-31T18:48:12;100753.13;;;1.47;nan
46408;BME280;32110;45.724;21.276;2023-01-31T18:50:37;100798.59;;;1.67;nan
46408;BME280;32110;45.724;21.276;2023-01-31T18:53:04;100803.78;;;1.67;nan
46408;BME280;32110;45.724;21.276;2023-01-31T18:55:30;100786.84;;;1.47;nan
46408;BME280;32110;45.724;21.276;2023-01-31T18:57:55;100807.97;;;1.60;nan
46408;BME280;32110;45.724;21.276;2023-01-31T19:00:21;100786.84;;;1.47;nan
46408;BME280;32110;45.724;21.276;2023-01-31T19:02:53;100797.44;;;1.54;nan
46408;BME280;32110;45.724;21.276;2023-01-31T19:05:19;100782.28;;;1.41;nan
46408;BME280;32110;45.724;21.276;2023-01-31T19:07:45;100793.97;;;1.45;nan
46408;BME280;32110;45.724;21.276;2023-01-31T19:10:11;100788.59;;;1.38;nan
46408;BME280;32110;45.724;21.276;2023-01-31T19:12:36;100796.88;;;1.42;nan
46408;BME280;32110;45.724;21.276;2023-01-31T19:15:07;100799.94;;;1.37;nan
46408;BME280;32110;45.724;21.276;2023-01-31T19:17:33;100795.00;;;1.26;nan
46408;BME280;32110;45.724;21.276;2023-01-31T19:19:59;100801.69;;;1.28;nan
46408;BME280;32110;45.724;21.276;2023-01-31T19:22:25;100809.91;;;1.24;nan
46408;BME280;32110;45.724;21.276;2023-01-31T19:24:53;100807.63;;;1.21;nan
46408;BME280;32110;45.724;21.276;2023-01-31T19:27:19;100799.50;;;1.16;nan
46408;BME280;32110;45.724;21.276;2023-01-31T19:29:44;100813.13;;;1.18;nan
46408;BME280;32110;45.724;21.276;2023-01-31T19:32:09;100794.63;;;1.13;nan
46408;BME280;32110;45.724;21.276;2023-01-31T19:34:35;100818.69;;;1.23;nan
46408;BME280;32110;45.724;21.276;2023-01-31T19:37:01;100809.72;;;1.17;nan
46408;BME280;32110;45.724;21.276;2023-01-31T19:39:27;100809.56;;;1.19;nan
46408;BME280;32110;45.724;21.276;2023-01-31T19:41:52;100798.63;;;1.07;nan
46408;BME280;32110;45.724;21.276;2023-01-31T19:44:18;100820.47;;;1.22;nan
46408;BME280;32110;45.724;21.276;2023-01-31T19:46:45;100821.28;;;1.23;nan
46408;BME280;32110;45.724;21.276;2023-01-31T19:49:13;100820.59;;;1.21;nan
46408;BME280;32110;45.724;21.276;2023-01-31T19:51:39;100824.69;;;1.23;nan
46408;BME280;32110;45.724;21.276;2023-01-31T19:54:05;100808.56;;;1.12;nan
46408;BME280;32110;45.724;21.276;2023-01-31T19:56:31;100822.22;;;1.22;nan
46408;BME280;32110;45.724;21.276;2023-01-31T19:58:58;100815.09;;;1.24;nan
46408;BME280;32110;45.724;21.276;2023-01-31T20:01:23;100810.38;;;1.19;nan
46408;BME280;32110;45.724;21.276;2023-01-31T20:03:49;100807.94;;;1.18;nan
46408;BME280;32110;45.724;21.276;2023-01-31T20:06:19;100817.69;;;1.24;nan
46408;BME280;32110;45.724;21.276;2023-01-31T20:08:52;100825.84;;;1.29;nan
46408;BME280;32110;45.724;21.276;2023-01-31T20:11:18;100827.47;;;1.30;nan
46408;BME280;32110;45.724;21.276;2023-01-31T20:13:44;100810.09;;;1.22;nan
46408;BME280;32110;45.724;21.276;2023-01-31T20:16:11;100837.41;;;1.35;nan
46408;BME280;32110;45.724;21.276;2023-01-31T20:18:38;100819.84;;;1.28;nan
46408;BME280;32110;45.724;21.276;2023-01-31T20:21:05;100820.00;;;1.27;nan
46408;BME280;32110;45.724;21.276;2023-01-31T20:23:30;100831.19;;;1.27;nan
46408;BME280;32110;45.724;21.276;2023-01-31T20:25:57;100820.66;;;1.29;nan
46408;BME280;32110;45.724;21.276;2023-01-31T20:28:24;100825.84;;;1.29;nan
46408;BME280;32110;45.724;21.276;2023-01-31T20:30:50;100820.59;;;1.21;nan
46408;BME280;32110;45.724;21.276;2023-01-31T20:33:15;100811.16;;;1.12;nan
46408;BME280;32110;45.724;21.276;2023-01-31T20:35:42;100830.22;;;1.28;nan
46408;BME280;32110;45.724;21.276;2023-01-31T20:38:08;100826.94;;;1.26;nan
46408;BME280;32110;45.724;21.276;2023-01-31T20:40:34;100818.00;;;1.21;nan
46408;BME280;32110;45.724;21.276;2023-01-31T20:43:00;100830.38;;;1.27;nan
46408;BME280;32110;45.724;21.276;2023-01-31T20:45:26;100828.59;;;1.27;nan
46408;BME280;32110;45.724;21.276;2023-01-31T20:47:55;100832.13;;;1.26;nan
46408;BME280;32110;45.724;21.276;2023-01-31T20:50:21;100825.47;;;1.24;nan
46408;BME280;32110;45.724;21.276;2023-01-31T20:52:47;100815.56;;;1.19;nan
46408;BME280;32110;45.724;21.276;2023-01-31T20:55:12;100819.50;;;1.23;nan
46408;BME280;32110;45.724;21.276;2023-01-31T20:57:38;100817.69;;;1.24;nan
46408;BME280;32110;45.724;21.276;2023-01-31T21:00:04;100827.78;;;1.27;nan
46408;BME280;32110;45.724;21.276;2023-01-31T21:02:29;100837.53;;;1.33;nan
46408;BME280;32110;45.724;21.276;2023-01-31T21:04:54;100819.63;;;1.22;nan
46408;BME280;32110;45.724;21.276;2023-01-31T21:07:20;100828.59;;;1.27;nan
46408;BME280;32110;45.724;21.276;2023-01-31T21:09:45;100821.63;;;1.28;nan
46408;BME280;32110;45.724;21.276;2023-01-31T21:12:11;100821.16;;;1.33;nan
46408;BME280;32110;45.724;21.276;2023-01-31T21:14:36;100827.22;;;1.41;nan
46408;BME280;32110;45.724;21.276;2023-01-31T21:17:02;100809.00;;;1.33;nan
46408;BME280;32110;45.724;21.276;2023-01-31T21:19:27;100818.59;;;1.41;nan
46408;BME280;32110;45.724;21.276;2023-01-31T21:21:53;100814.75;;;1.45;nan
46408;BME280;32110;45.724;21.276;2023-01-31T21:24:18;100817.00;;;1.48;nan
46408;BME280;32110;45.724;21.276;2023-01-31T21:26:43;100808.53;;;1.38;nan
46408;BME280;32110;45.724;21.276;2023-01-31T21:29:09;100799.28;;;1.35;nan
46408;BME280;32110;45.724;21.276;2023-01-31T21:31:34;100817.47;;;1.43;nan
46408;BME280;32110;45.724;21.276;2023-01-31T21:33:59;100824.50;;;1.51;nan
46408;BME280;32110;45.724;21.276;2023-01-31T21:36:30;100810.22;;;1.47;nan
46408;BME280;32110;45.724;21.276;2023-01-31T21:38:55;100814.28;;;1.49;nan
46408;BME280;32110;45.724;21.276;2023-01-31T21:41:20;100824.53;;;1.59;nan
46408;BME280;32110;45.724;21.276;2023-01-31T21:44:04;100821.13;;;1.59;nan
46408;BME280;32110;45.724;21.276;2023-01-31T21:46:30;100807.81;;;1.54;nan
46408;BME280;32110;45.724;21.276;2023-01-31T21:48:55;100786.50;;;1.42;nan
46408;BME280;32110;45.724;21.276;2023-01-31T21:51:22;100817.09;;;1.64;nan
46408;BME280;32110;45.724;21.276;2023-01-31T21:53:49;100819.88;;;1.63;nan
46408;BME280;32110;45.724;21.276;2023-01-31T21:56:17;100826.34;;;1.67;nan
46408;BME280;32110;45.724;21.276;2023-01-31T21:58:44;100822.13;;;1.66;nan
46408;BME280;32110;45.724;21.276;2023-01-31T22:03:36;100828.28;;;1.65;nan
46408;BME280;32110;45.724;21.276;2023-01-31T22:06:04;100828.13;;;1.66;nan
46408;BME280;32110;45.724;21.276;2023-01-31T22:08:30;100830.88;;;1.65;nan
46408;BME280;32110;45.724;21.276;2023-01-31T22:13:25;100833.47;;;1.65;nan
46408;BME280;32110;45.724;21.276;2023-01-31T22:15:50;100832.00;;;1.62;nan
46408;BME280;32110;45.724;21.276;2023-01-31T22:18:15;100824.53;;;1.59;nan
46408;BME280;32110;45.724;21.276;2023-01-31T22:20:42;100827.66;;;1.63;nan
46408;BME280;32110;45.724;21.276;2023-01-31T22:23:07;100817.56;;;1.60;nan
46408;BME280;32110;45.724;21.276;2023-01-31T22:25:35;100826.00;;;1.62;nan
46408;BME280;32110;45.724;21.276;2023-01-31T22:28:00;100812.03;;;1.55;nan
46408;BME280;32110;45.724;21.276;2023-01-31T22:30:26;100808.94;;;1.51;nan
46408;BME280;32110;45.724;21.276;2023-01-31T22:32:51;100821.75;;;1.53;nan
46408;BME280;32110;45.724;21.276;2023-01-31T22:35:16;100829.88;;;1.58;nan
46408;BME280;32110;45.724;21.276;2023-01-31T22:37:42;100816.88;;;1.49;nan
46408;BME280;32110;45.724;21.276;2023-01-31T22:40:08;100828.06;;;1.50;nan
46408;BME280;32110;45.724;21.276;2023-01-31T22:42:33;100825.25;;;1.43;nan
46408;BME280;32110;45.724;21.276;2023-01-31T22:44:59;100829.19;;;1.47;nan
46408;BME280;32110;45.724;21.276;2023-01-31T22:47:24;100821.19;;;1.41;nan
46408;BME280;32110;45.724;21.276;2023-01-31T22:49:50;100817.44;;;1.35;nan
46408;BME280;32110;45.724;21.276;2023-01-31T22:52:15;100824.78;;;1.40;nan
46408;BME280;32110;45.724;21.276;2023-01-31T22:54:40;100811.09;;;1.30;nan
46408;BME280;32110;45.724;21.276;2023-01-31T22:57:06;100828.03;;;1.42;nan
46408;BME280;32110;45.724;21.276;2023-01-31T22:59:31;100825.13;;;1.45;nan
46408;BME280;32110;45.724;21.276;2023-01-31T23:01:59;100802.34;;;1.31;nan